Terminal Aerodrome Forecast
Issued by NWS

Home | Current Version | Previous Version | Text Only | Print | Product List | Glossary On
Versions: 1 2 3 4 5 6 7 8 9 10 11 12 13 14 15 16 17 18 19 20 21 22 23 24 25 26 27 28 29
000
FTUS46 KSGX 272334
TAFSAN
TAF
KSAN 272334Z 2800/2906 25010KT P6SM FEW020
     FM280200 VRB05KT P6SM SCT018
     FM280800 VRB03KT P6SM OVC015
     FM281600 VRB05KT P6SM SCT017
     FM282000 27010KT P6SM SKC
     FM290200 VRB05KT P6SM SCT016=

USA.gov is the U.S. government's official web portal to all federal, state and local government web resources and services.